Briefing drone pour Le rouget

Rechercher une autre localisation

Conditions de vol :


Nous sommes le : Lundi 12 avril 2021
Il est 01:16 UTC (03:16 LT)

Lever de soleil : 04:44 UTC (06:44 LT)
Coucher de soleil : 18:59 UTC (20:59 LT)


Warning: min(): Array must contain at least one element in /homepages/6/d509196549/htdocs/briefdrone/includes/function/metar/metar.php on line 1265

Météo

L'essentiel des conditions de vol

VIGILANCE MÉTÉO FRANCE - Cantal (15)
Vigilance Jaune : Neige-verglas
CARTE TEMSI
CARTES DES FRONTS
METAR de LFLW
LFLW 120100Z AUTO VRB02KT 9000 NCD 01/01 Q1022

Date d'émission: 12/04/2021
Heure d'émission: 01:00 UTC
Vent: Variable 2 KT (4 km/h)
Visibilité horizontale: 9000 m
Température: 1 °C
Point de rosée: 1 °C
Humidité: 100%
Pression (QNH): 1022 hPa
Prévision 24h pour Aurillac (12 km)
Vent : 10° pour 2 KT (7 km/h)
Temperature Maxi: 0 °C
Temperature Min: 0 °C
Humidité : 73%
Condition : Ciel dégagé



Warning: count(): Parameter must be an array or an object that implements Countable in /homepages/6/d509196549/htdocs/droneoxygene/briefing.php on line 743
WEBCAM POUR LE ROUGET

Réglementation

Voler en sécurité

CARTES AERONAUTIQUE 1/500.000
CARTES VAC (LFLW)
SUP AIP




Chargement des AIP...
NOTAM (LE ROUGET + Terrain à proximité / FIR )




Chargement des NOTAMS...
CONTACT PREFECTURE 15


Avertissement : Les données mises à disposition sont indicatives. Oxygène Drone ne pourra être tenu responsable de dégâts causés aux biens et aux personnes.